Time;durP1;ratioP1;P1;durP2;ratioP2;P2;SDS_P1;SDS_P2;PMS_P1;PMS_P2;Temp;Humidity;BMP_temperature;BMP_pressure;BME280_temperature;BME280_humidity;BME280_pressure;Samples;Min_cycle;Max_cycle;Signal;HPM_P1;HPM_P2
2022/09/21 00:00:39;;;;;;;0.00;0.00;;;10.20;99.90;9.70;100807;;;;604728;234;24078;-82
2022/09/21 00:03:09;;;;;;;0.00;0.00;;;10.20;99.90;9.70;100794;;;;604626;234;23986;-83
2022/09/21 00:05:34;;;;;;;0.00;0.00;;;10.20;99.90;9.70;100793;;;;603987;234;24074;-83
2022/09/21 00:08:06;;;;;;;0.00;0.00;;;10.30;99.90;9.70;100785;;;;602984;234;24291;-82
2022/09/21 00:10:32;;;;;;;0.00;0.00;;;10.20;99.90;9.70;100783;;;;598531;234;34623;-82
2022/09/21 00:13:01;;;;;;;0.00;0.00;;;10.20;99.90;9.60;100792;;;;602397;234;24029;-82
2022/09/21 00:15:28;;;;;;;0.00;0.00;;;10.20;99.90;9.60;100789;;;;603948;234;24010;-82
2022/09/21 00:17:55;;;;;;;0.00;0.00;;;10.20;99.90;9.60;100797;;;;603742;234;24050;-81
2022/09/21 00:20:24;;;;;;;0.00;0.00;;;10.20;99.90;9.60;100802;;;;603841;234;24034;-82
2022/09/21 00:22:56;;;;;;;0.00;0.00;;;10.20;99.90;9.70;100816;;;;603847;234;24117;-82
2022/09/21 00:25:21;;;;;;;0.10;0.10;;;10.20;99.90;9.70;100818;;;;603676;234;24003;-83
2022/09/21 00:27:50;;;;;;;0.00;0.00;;;10.20;99.90;9.70;100818;;;;603875;234;24005;-83
2022/09/21 00:30:19;;;;;;;0.00;0.00;;;10.20;99.90;9.70;100812;;;;613643;234;24022;-82
2022/09/21 00:32:44;;;;;;;0.00;0.00;;;10.30;99.90;9.70;100808;;;;603613;234;24037;-83
2022/09/21 00:35:12;;;;;;;0.00;0.00;;;10.30;99.90;9.70;100816;;;;608906;234;24000;-84
2022/09/21 00:37:40;;;;;;;0.00;0.00;;;10.30;99.90;9.70;100813;;;;603477;234;24074;-84
2022/09/21 00:40:12;;;;;;;0.20;0.20;;;10.30;99.90;9.80;100816;;;;603429;234;24062;-82
2022/09/21 00:42:37;;;;;;;0.03;0.03;;;10.30;99.90;9.70;100809;;;;603656;234;24030;-83
2022/09/21 00:45:05;;;;;;;0.00;0.00;;;10.30;99.90;9.70;100808;;;;609033;234;24011;-83
2022/09/21 00:47:38;;;;;;;0.00;0.00;;;10.30;99.90;9.70;100806;;;;612550;234;24023;-83
2022/09/21 00:50:06;;;;;;;0.00;0.00;;;10.30;99.90;9.70;100808;;;;603450;234;24081;-83
2022/09/21 00:52:34;;;;;;;0.00;0.00;;;10.20;99.90;9.60;100810;;;;602911;234;24035;-83
2022/09/21 00:55:05;;;;;;;0.10;0.10;;;10.20;99.90;9.60;100807;;;;603516;234;24023;-82
2022/09/21 00:57:34;;;;;;;1.20;1.00;;;10.10;99.90;9.50;100805;;;;603275;234;24056;-82
2022/09/21 01:00:02;;;;;;;1.03;1.03;;;9.90;99.90;9.40;100807;;;;603588;234;24087;-80
2022/09/21 01:02:30;;;;;;;1.40;1.30;;;9.90;99.90;9.30;100804;;;;603340;234;24047;-83
2022/09/21 01:04:58;;;;;;;3.87;1.40;;;9.90;99.90;9.20;100803;;;;603752;234;24016;-83
2022/09/21 01:07:26;;;;;;;2.23;1.63;;;9.80;99.90;9.10;100808;;;;603462;234;24005;-82
2022/09/21 01:09:57;;;;;;;1.60;1.50;;;9.70;99.90;9.00;100807;;;;603336;234;24050;-82
2022/09/21 01:12:39;;;;;;;3.70;1.60;;;9.60;99.90;8.90;100800;;;;604384;234;24061;-83
2022/09/21 01:15:25;;;;;;;3.40;1.27;;;9.50;99.90;8.80;100803;;;;604670;234;24036;-82
2022/09/21 01:17:59;;;;;;;3.40;1.40;;;9.40;99.90;8.80;100804;;;;604058;234;24011;-82
2022/09/21 01:20:41;;;;;;;1.30;1.27;;;9.40;99.90;8.70;100806;;;;604073;234;24067;-81
2022/09/21 01:23:43;;;;;;;3.80;1.33;;;9.20;99.90;8.60;100801;;;;613789;234;24022;-82
2022/09/21 01:26:44;;;;;;;3.27;1.90;;;9.20;99.90;8.60;100804;;;;609134;234;24015;-82
2022/09/21 01:29:22;;;;;;;1.83;1.73;;;9.10;99.90;8.60;100801;;;;601072;234;24008;-81
2022/09/21 01:31:51;;;;;;;2.87;1.93;;;9.10;99.90;8.50;100795;;;;603589;234;24051;-82
2022/09/21 01:34:39;;;;;;;4.80;1.40;;;9.10;99.90;8.50;100793;;;;603501;234;24014;-83
2022/09/21 01:37:14;;;;;;;3.13;1.43;;;9.00;99.90;8.50;100802;;;;592600;234;24014;-83
2022/09/21 01:39:41;;;;;;;1.77;1.53;;;9.00;99.90;8.40;100803;;;;604039;234;23995;-83
2022/09/21 01:42:12;;;;;;;2.10;1.50;;;9.00;99.90;8.40;100798;;;;603692;234;23991;-83
2022/09/21 01:44:37;;;;;;;5.47;1.70;;;8.90;99.90;8.30;100800;;;;603849;234;24064;-82
2022/09/21 01:47:05;;;;;;;1.60;1.50;;;8.90;99.90;8.30;100797;;;;604096;234;24007;-83
2022/09/21 01:49:37;;;;;;;5.57;2.23;;;8.90;99.90;8.30;100800;;;;603391;234;24033;-83
2022/09/21 01:52:01;;;;;;;2.20;1.67;;;8.90;99.90;8.30;100802;;;;603337;234;24014;-82
2022/09/21 01:54:29;;;;;;;5.83;1.70;;;8.90;99.90;8.40;100797;;;;603353;234;24027;-83
2022/09/21 01:57:09;;;;;;;2.30;2.00;;;8.90;99.90;8.40;100804;;;;603268;234;24081;-81
2022/09/21 01:59:49;;;;;;;2.13;1.40;;;9.00;99.90;8.40;100803;;;;603358;234;24418;-81
2022/09/21 02:02:16;;;;;;;1.70;1.60;;;9.00;99.90;8.40;100807;;;;603744;234;24057;-82
2022/09/21 02:04:44;;;;;;;3.33;1.93;;;8.90;99.90;8.40;100804;;;;603463;234;24125;-82
2022/09/21 02:07:16;;;;;;;1.60;1.40;;;9.00;99.90;8.40;100801;;;;604010;234;24004;-83
2022/09/21 02:09:40;;;;;;;3.93;2.00;;;9.00;99.90;8.40;100810;;;;603159;234;24040;-83
2022/09/21 02:12:09;;;;;;;2.03;1.83;;;8.90;99.90;8.40;100805;;;;603482;234;24082;-83
2022/09/21 02:14:40;;;;;;;3.50;1.37;;;8.90;99.90;8.30;100813;;;;603557;234;24028;-83
2022/09/21 02:17:13;;;;;;;3.23;1.80;;;8.90;99.90;8.30;100814;;;;612742;234;24061;-83
2022/09/21 02:19:59;;;;;;;3.40;1.93;;;8.90;99.90;8.40;100814;;;;600843;234;24015;-82
2022/09/21 02:22:34;;;;;;;2.40;1.83;;;9.00;99.90;8.50;100806;;;;599364;234;24081;-84
2022/09/21 02:25:04;;;;;;;2.23;1.70;;;9.00;99.90;8.50;100810;;;;604996;234;24069;-82
2022/09/21 02:27:40;;;;;;;2.57;2.20;;;9.10;99.90;8.50;100813;;;;603735;234;24100;-83
2022/09/21 02:30:15;;;;;;;2.80;1.90;;;9.10;99.90;8.60;100809;;;;604315;234;24005;-83
2022/09/21 02:32:43;;;;;;;2.70;1.40;;;9.10;99.90;8.60;100807;;;;604490;234;24014;-86
2022/09/21 02:35:15;;;;;;;2.20;1.47;;;9.10;99.90;8.60;100817;;;;604052;234;24058;-81
2022/09/21 02:37:47;;;;;;;2.67;1.67;;;9.10;99.90;8.60;100819;;;;603549;234;24031;-82
2022/09/21 02:40:32;;;;;;;2.37;1.23;;;9.10;99.90;8.50;100819;;;;603971;234;24025;-82
2022/09/21 02:43:00;;;;;;;3.07;1.20;;;9.00;99.90;8.40;100822;;;;604026;234;24025;-83
2022/09/21 02:45:33;;;;;;;1.43;1.37;;;8.90;99.90;8.40;100821;;;;603614;234;24029;-80
2022/09/21 02:48:06;;;;;;;2.23;1.20;;;8.90;99.90;8.30;100821;;;;604072;234;24011;-82
2022/09/21 02:50:52;;;;;;;1.50;1.13;;;8.90;99.90;8.30;100826;;;;603674;234;24061;-82
2022/09/21 02:53:22;;;;;;;0.80;0.80;;;8.90;99.90;8.30;100824;;;;604078;234;23998;-82
2022/09/21 02:55:53;;;;;;;2.93;1.53;;;8.80;99.90;8.30;100823;;;;603174;234;24038;-83
2022/09/21 02:58:18;;;;;;;5.70;1.50;;;8.80;99.90;8.20;100829;;;;603457;234;24031;-83
2022/09/21 03:00:46;;;;;;;1.67;1.57;;;8.80;99.90;8.20;100821;;;;603352;234;25095;-83
2022/09/21 03:03:16;;;;;;;2.30;1.57;;;8.80;99.90;8.20;100829;;;;603434;234;24080;-84
2022/09/21 03:05:44;;;;;;;1.73;1.43;;;8.80;99.90;8.20;100835;;;;603966;234;24000;-84
2022/09/21 03:08:12;;;;;;;2.13;1.37;;;8.70;99.90;8.10;100832;;;;603876;234;24000;-83
2022/09/21 03:10:40;;;;;;;2.00;1.40;;;8.70;99.90;8.10;100830;;;;603929;234;24019;-84
2022/09/21 03:13:11;;;;;;;1.40;1.30;;;8.70;99.90;8.10;100831;;;;603966;234;23995;-83
2022/09/21 03:15:42;;;;;;;3.03;1.60;;;8.70;99.90;8.10;100830;;;;609074;234;24015;-83
2022/09/21 03:18:10;;;;;;;1.37;1.27;;;8.70;99.90;8.10;100829;;;;603691;234;23996;-84
2022/09/21 03:20:35;;;;;;;2.33;1.33;;;8.70;99.90;8.10;100833;;;;603607;234;24010;-83
2022/09/21 03:23:03;;;;;;;5.80;1.30;;;8.60;99.90;8.10;100829;;;;603989;234;23988;-83
2022/09/21 03:25:34;;;;;;;1.37;1.30;;;8.70;99.90;8.10;100833;;;;604076;234;24000;-82
2022/09/21 03:28:00;;;;;;;1.87;1.47;;;8.60;99.90;8.10;100826;;;;603977;234;24034;-81
2022/09/21 03:30:28;;;;;;;1.80;1.37;;;8.70;99.90;8.10;100838;;;;604848;234;25051;-83
2022/09/21 03:32:59;;;;;;;3.07;1.47;;;8.70;99.90;8.20;100843;;;;604706;234;24017;-83
2022/09/21 03:35:26;;;;;;;1.40;1.40;;;8.70;99.90;8.20;100848;;;;605377;234;24029;-84
2022/09/21 03:37:50;;;;;;;2.43;1.30;;;8.80;99.90;8.30;100849;;;;605125;234;24049;-83
2022/09/21 03:40:18;;;;;;;3.60;1.20;;;8.80;99.90;8.40;100859;;;;605362;234;24065;-83
2022/09/21 03:42:46;;;;;;;4.17;1.50;;;8.90;99.90;8.50;100849;;;;604917;234;23998;-83
2022/09/21 03:45:17;;;;;;;0.80;0.80;;;9.00;99.90;8.60;100865;;;;604499;234;25053;-82
2022/09/21 03:47:46;;;;;;;0.80;0.80;;;9.10;99.90;8.70;100864;;;;604430;234;24057;-83
2022/09/21 03:50:18;;;;;;;0.93;0.93;;;9.30;99.90;8.70;100874;;;;604074;234;24013;-82
2022/09/21 03:52:43;;;;;;;1.43;0.90;;;9.30;99.90;8.80;100866;;;;603831;234;24060;-82
2022/09/21 03:55:10;;;;;;;0.77;0.60;;;9.30;99.90;8.80;100869;;;;603853;234;24053;-82
2022/09/21 03:57:38;;;;;;;1.30;0.97;;;9.40;99.90;8.80;100874;;;;603944;234;24050;-82
2022/09/21 04:00:07;;;;;;;3.23;1.10;;;9.40;99.90;8.80;100875;;;;603847;234;23991;-82
2022/09/21 04:02:37;;;;;;;1.00;1.00;;;9.40;99.90;8.90;100881;;;;603964;234;24010;-82
2022/09/21 04:05:06;;;;;;;2.83;1.00;;;9.50;99.90;8.90;100876;;;;603637;234;24046;-82
2022/09/21 04:07:33;;;;;;;1.23;0.77;;;9.50;99.90;9.00;100885;;;;603416;234;24074;-82
2022/09/21 04:10:03;;;;;;;2.77;1.00;;;9.50;99.90;9.00;100884;;;;603747;234;24006;-82
2022/09/21 04:12:27;;;;;;;6.47;1.00;;;9.60;99.90;9.00;100880;;;;603028;234;24069;-82
2022/09/21 04:14:54;;;;;;;1.27;1.10;;;9.60;99.90;9.10;100882;;;;603649;234;24006;-82
2022/09/21 04:17:23;;;;;;;1.57;1.30;;;9.60;99.90;9.10;100882;;;;603652;234;25074;-82
2022/09/21 04:19:51;;;;;;;1.50;1.40;;;9.60;99.90;9.10;100887;;;;613244;234;24047;-82
2022/09/21 04:22:19;;;;;;;5.03;2.00;;;9.60;99.90;9.10;100884;;;;603577;234;24106;-82
2022/09/21 04:24:47;;;;;;;7.53;3.27;;;9.70;99.90;9.10;100878;;;;603552;234;24065;-82
2022/09/21 04:27:15;;;;;;;22.63;9.40;;;9.60;99.90;9.10;100882;;;;603721;234;24003;-81
2022/09/21 04:29:43;;;;;;;21.47;7.90;;;9.60;99.90;9.10;100879;;;;603526;234;24058;-82
2022/09/21 04:32:11;;;;;;;14.40;5.03;;;9.70;99.90;9.10;100871;;;;603638;234;24084;-82
2022/09/21 04:34:39;;;;;;;6.70;3.10;;;9.60;99.90;9.10;100878;;;;613252;234;24014;-81
2022/09/21 04:37:07;;;;;;;8.00;3.43;;;9.60;99.90;9.00;100886;;;;603408;234;24084;-81
2022/09/21 04:39:35;;;;;;;3.07;2.13;;;9.60;99.90;9.00;100888;;;;603562;234;24094;-81
2022/09/21 04:42:03;;;;;;;6.20;2.60;;;9.60;99.90;9.00;100895;;;;603439;234;26204;-82
2022/09/21 04:44:31;;;;;;;2.20;1.20;;;9.60;99.90;9.10;100899;;;;602096;234;24106;-82
2022/09/21 04:46:59;;;;;;;1.27;1.03;;;9.60;99.90;9.10;100900;;;;604620;234;24014;-81
2022/09/21 04:49:27;;;;;;;4.87;1.50;;;9.60;99.90;9.10;100893;;;;604658;234;24048;-81
2022/09/21 04:51:55;;;;;;;3.50;1.00;;;9.70;99.90;9.20;100893;;;;604725;234;24079;-82
2022/09/21 04:54:23;;;;;;;2.50;0.80;;;9.70;99.90;9.20;100889;;;;604846;234;24041;-82
2022/09/21 04:56:51;;;;;;;0.70;0.70;;;9.70;99.90;9.20;100899;;;;604510;234;24084;-82
2022/09/21 04:59:19;;;;;;;2.37;0.90;;;9.70;99.90;9.20;100894;;;;604531;234;24014;-82
2022/09/21 05:01:47;;;;;;;2.97;0.90;;;9.70;99.90;9.20;100896;;;;604476;234;24046;-82
2022/09/21 05:04:15;;;;;;;0.97;0.93;;;9.70;99.90;9.10;100894;;;;604222;234;24001;-81
2022/09/21 05:06:43;;;;;;;0.90;0.90;;;9.70;99.90;9.10;100894;;;;613481;234;24033;-81
2022/09/21 05:11:57;;;;;;;2.20;0.93;;;9.70;99.90;9.20;100901;;;;604181;234;24108;-82
2022/09/21 05:14:25;;;;;;;0.83;0.83;;;9.70;99.90;9.20;100906;;;;603893;234;24020;-81
2022/09/21 05:16:53;;;;;;;1.17;1.03;;;9.70;99.90;9.20;100909;;;;603702;234;24041;-82
2022/09/21 05:19:21;;;;;;;1.73;1.10;;;9.70;99.90;9.30;100906;;;;603866;234;24020;-81
2022/09/21 05:21:49;;;;;;;1.90;1.10;;;9.80;99.90;9.40;100906;;;;603818;234;23998;-81
2022/09/21 05:24:17;;;;;;;1.20;1.10;;;9.90;99.90;9.50;100910;;;;603628;234;24127;-81
2022/09/21 05:26:45;;;;;;;2.17;0.90;;;10.00;99.90;9.50;100923;;;;603613;234;24065;-80
2022/09/21 05:29:13;;;;;;;1.17;0.73;;;10.10;99.90;9.60;100920;;;;603443;234;24046;-81
2022/09/21 05:32:30;;;;;;;1.17;1.00;;;10.10;99.90;9.70;100919;;;;608960;234;23998;-80
2022/09/21 05:35:01;;;;;;;1.37;0.87;;;10.20;99.90;9.70;100928;;;;604182;234;24005;-80
2022/09/21 05:38:08;;;;;;;1.27;1.00;;;10.30;99.90;9.90;100933;;;;607980;234;24082;-81
2022/09/21 05:40:36;;;;;;;3.20;1.23;;;10.40;99.90;10.10;100931;;;;603808;234;24045;-81
2022/09/21 05:43:04;;;;;;;6.80;1.37;;;10.60;99.90;10.30;100928;;;;603862;234;24042;-79
2022/09/21 05:45:32;;;;;;;1.73;0.80;;;10.70;99.90;10.40;100934;;;;603498;234;24037;-81
2022/09/21 05:48:14;;;;;;;4.37;1.07;;;10.80;99.90;10.40;100940;;;;603445;234;24021;-81
2022/09/21 05:50:58;;;;;;;3.80;1.00;;;11.00;99.90;10.50;100939;;;;603353;234;24035;-82
2022/09/21 05:53:53;;;;;;;1.17;0.90;;;11.00;99.90;10.60;100940;;;;603424;234;25085;-81
2022/09/21 05:56:45;;;;;;;2.27;0.77;;;11.10;99.90;10.60;100944;;;;589641;240;24025;-81
2022/09/21 05:59:47;;;;;;;3.33;1.30;;;11.10;99.90;10.50;100933;;;;605205;234;24036;-81
2022/09/21 06:02:53;;;;;;;0.70;0.70;;;11.10;99.90;10.50;100943;;;;614435;233;24080;-81
2022/09/21 06:05:21;;;;;;;2.00;1.00;;;11.10;99.90;10.50;100946;;;;604564;234;24033;-81
2022/09/21 06:07:49;;;;;;;4.10;1.23;;;11.10;99.90;10.50;100946;;;;604025;233;23990;-82
2022/09/21 06:10:17;;;;;;;3.43;1.27;;;11.10;99.90;10.60;100952;;;;600517;239;24071;-82
2022/09/21 06:12:45;;;;;;;5.60;2.03;;;11.10;99.90;10.60;100945;;;;613882;233;23998;-81
2022/09/21 06:15:13;;;;;;;6.97;4.87;;;11.20;99.90;10.70;100955;;;;600340;238;24040;-81
2022/09/21 06:17:41;;;;;;;12.17;5.73;;;11.20;99.90;10.60;100947;;;;603876;234;24058;-81
2022/09/21 06:20:12;;;;;;;5.17;3.13;;;11.20;99.90;10.60;100965;;;;586714;239;24088;-81
2022/09/21 06:22:37;;;;;;;3.27;2.53;;;11.20;99.90;10.70;100961;;;;603755;234;24008;-80
2022/09/21 06:25:05;;;;;;;3.37;2.30;;;11.20;99.90;11.20;100952;;;;600224;238;24067;-81
2022/09/21 06:27:34;;;;;;;4.33;2.37;;;12.90;99.90;12.90;100954;;;;603896;234;24006;-81
2022/09/21 06:30:03;;;;;;;3.33;1.93;;;16.20;99.90;16.20;100972;;;;604099;234;23992;-80
2022/09/21 06:32:31;;;;;;;2.10;1.87;;;16.20;99.90;18.60;100976;;;;600135;238;24075;-79
2022/09/21 06:34:58;;;;;;;1.57;1.13;;;18.80;99.90;19.60;100984;;;;603615;234;24021;-80
2022/09/21 06:37:26;;;;;;;3.23;1.23;;;20.10;99.90;19.20;100983;;;;599755;239;24076;-80
2022/09/21 06:39:54;;;;;;;3.37;1.27;;;19.90;99.90;18.30;100989;;;;603652;234;25189;-78
2022/09/21 06:42:22;;;;;;;2.67;1.20;;;19.10;99.90;17.60;100985;;;;599971;239;24046;-80
2022/09/21 06:44:50;;;;;;;2.30;0.97;;;18.40;99.90;17.10;100984;;;;603722;234;23993;-79
2022/09/21 06:47:18;;;;;;;0.90;0.90;;;17.90;99.90;16.80;100985;;;;603612;234;23996;-79
2022/09/21 06:49:47;;;;;;;1.17;0.70;;;17.20;99.90;16.60;100980;;;;603504;234;24005;-80
2022/09/21 06:52:15;;;;;;;2.60;1.73;;;16.80;99.90;16.20;100983;;;;603647;234;24049;-78
2022/09/21 06:54:44;;;;;;;0.90;0.90;;;16.40;99.90;16.00;100985;;;;600353;238;25106;-81
2022/09/21 06:57:13;;;;;;;1.13;0.80;;;16.40;99.90;16.00;100982;;;;603963;234;24046;-80
2022/09/21 06:59:41;;;;;;;1.63;1.20;;;16.40;99.90;15.80;100985;;;;600193;239;24031;-80
2022/09/21 07:02:09;;;;;;;2.13;1.53;;;16.30;99.90;15.60;100986;;;;603862;234;24065;-79
2022/09/21 07:04:37;;;;;;;1.67;1.33;;;16.10;99.90;15.50;100992;;;;600360;239;24127;-79
2022/09/21 07:07:04;;;;;;;1.53;1.33;;;16.00;99.90;15.30;100989;;;;603886;234;24027;-80
2022/09/21 07:09:32;;;;;;;1.67;1.10;;;15.80;99.90;15.40;100994;;;;604596;234;24017;-80
2022/09/21 07:12:00;;;;;;;1.03;1.00;;;15.80;99.90;15.50;100995;;;;605352;234;24016;-81
2022/09/21 07:14:28;;;;;;;1.00;0.90;;;15.90;99.90;15.60;100994;;;;604952;234;23996;-82
2022/09/21 07:16:56;;;;;;;2.57;1.20;;;16.00;99.90;15.60;100993;;;;601188;239;24042;-82
2022/09/21 07:19:24;;;;;;;4.73;1.00;;;16.10;99.90;15.60;101007;;;;604680;234;24021;-82
2022/09/21 07:21:55;;;;;;;0.80;0.80;;;16.10;99.90;15.70;101009;;;;600907;239;24021;-80
2022/09/21 07:24:23;;;;;;;2.77;0.63;;;16.10;99.90;15.70;101006;;;;604519;234;24073;-78
2022/09/21 07:26:51;;;;;;;1.60;1.23;;;16.20;99.90;15.90;101013;;;;604574;234;24066;-81
2022/09/21 07:29:19;;;;;;;1.70;0.63;;;16.30;99.90;16.00;101010;;;;600513;239;24068;-81
2022/09/21 07:31:47;;;;;;;1.30;0.97;;;16.40;99.90;16.20;101009;;;;604218;234;24046;-80
2022/09/21 07:34:15;;;;;;;1.43;1.10;;;16.90;99.90;16.50;101009;;;;604150;234;24035;-81
2022/09/21 07:36:44;;;;;;;1.57;1.27;;;17.40;99.90;17.10;101020;;;;604185;234;24005;-80
2022/09/21 07:39:12;;;;;;;1.57;1.10;;;17.40;99.90;17.70;101010;;;;600542;239;24056;-79
2022/09/21 07:41:40;;;;;;;4.50;1.57;;;18.00;99.90;18.10;101017;;;;604145;234;24011;-78
2022/09/21 07:44:08;;;;;;;1.57;1.47;;;18.40;99.90;18.60;101021;;;;600524;238;24025;-78
2022/09/21 07:46:36;;;;;;;4.07;1.50;;;18.80;99.90;19.50;101026;;;;603932;234;24020;-80
2022/09/21 07:49:05;;;;;;;2.40;1.20;;;19.50;99.90;21.90;101027;;;;600305;238;24052;-80
2022/09/21 07:51:31;;;;;;;1.73;0.70;;;21.70;99.90;24.40;101030;;;;603917;234;24038;-80
2022/09/21 07:53:59;;;;;;;1.57;1.00;;;24.20;99.90;27.00;101038;;;;603884;234;23980;-79
2022/09/21 07:56:27;;;;;;;0.90;0.90;;;26.80;99.90;28.80;101042;;;;599940;238;24086;-79
2022/09/21 07:59:07;;;;;;;1.93;1.03;;;29.00;99.90;30.30;101037;;;;603512;234;23096;-78
2022/09/21 08:01:37;;;;;;;1.52;0.82;;;30.60;99.90;31.70;101033;;;;600236;238;24076;-78
2022/09/21 08:04:06;;;;;;;0.60;0.60;;;32.20;99.90;32.40;101021;;;;603792;234;23042;-78
2022/09/21 08:06:34;;;;;;;1.55;0.93;;;33.20;99.90;32.90;101017;;;;608819;234;23005;-78
2022/09/21 08:09:01;;;;;;;2.62;0.80;;;33.70;99.90;33.10;101025;;;;603781;234;23019;-77
2022/09/21 08:11:29;;;;;;;1.85;0.65;;;33.90;95.90;33.50;101016;;;;603707;234;23029;-78
2022/09/21 08:13:57;;;;;;;2.30;0.80;;;34.30;79.30;34.20;101015;;;;603760;234;23026;-78
2022/09/21 08:16:28;;;;;;;1.02;0.90;;;35.20;65.20;34.50;101020;;;;580213;244;23074;-78
2022/09/21 08:18:54;;;;;;;1.87;0.93;;;35.10;64.80;35.00;101021;;;;603486;234;23014;-77
2022/09/21 08:21:22;;;;;;;2.83;1.02;;;36.40;54.30;35.70;101022;;;;591750;239;23077;-78
2022/09/21 08:23:50;;;;;;;1.87;1.00;;;36.30;54.10;35.90;101022;;;;605235;234;23053;-77
2022/09/21 08:26:18;;;;;;;1.08;1.08;;;36.70;50.80;35.90;101030;;;;604899;234;23016;-78
2022/09/21 08:28:49;;;;;;;0.70;0.70;;;36.70;50.80;36.20;101026;;;;609373;234;23053;-78
2022/09/21 08:31:20;;;;;;;1.02;0.80;;;37.00;51.00;36.70;101037;;;;604139;234;23027;-78
2022/09/21 08:33:48;;;;;;;3.12;0.70;;;37.50;48.90;37.00;101039;;;;613350;234;23020;-78
2022/09/21 08:36:13;;;;;;;1.40;0.60;;;37.80;48.00;37.40;101042;;;;604084;234;23035;-78
2022/09/21 08:38:41;;;;;;;0.68;0.60;;;38.20;47.00;37.50;101044;;;;604048;234;23002;-78
2022/09/21 08:41:29;;;;;;;0.82;0.82;;;38.40;46.10;37.10;101044;;;;603593;234;23025;-78
2022/09/21 08:44:00;;;;;;;0.70;0.60;;;38.10;45.30;36.40;101050;;;;602839;234;23051;-78
2022/09/21 08:46:28;;;;;;;0.70;0.70;;;37.50;45.60;36.00;101046;;;;603535;234;23029;-78
2022/09/21 08:49:17;;;;;;;1.62;0.90;;;37.00;44.80;36.00;101050;;;;598519;234;34657;-77
2022/09/21 08:51:47;;;;;;;0.70;0.70;;;36.90;44.00;34.00;101049;;;;603816;234;23013;-78
2022/09/21 08:54:15;;;;;;;3.50;0.90;;;35.60;45.80;32.20;101053;;;;602943;234;24104;-78
2022/09/21 08:56:43;;;;;;;0.52;0.52;;;34.00;47.40;30.20;101050;;;;598352;234;23075;-78
2022/09/21 08:59:11;;;;;;;0.95;0.70;;;32.40;49.50;29.20;101056;;;;603483;234;22998;-76
2022/09/21 09:01:57;;;;;;;0.47;0.47;;;30.70;51.70;29.90;101049;;;;608984;234;24020;-78
2022/09/21 09:04:23;;;;;;;1.85;0.77;;;30.70;51.70;30.90;101055;;;;603365;234;23023;-79
2022/09/21 09:06:54;;;;;;;0.93;0.77;;;31.30;50.90;31.70;101052;;;;608108;234;23061;-77
2022/09/21 09:09:30;;;;;;;3.62;0.90;;;32.20;50.20;32.60;101048;;;;603491;234;23042;-77
2022/09/21 09:12:01;;;;;;;2.45;0.60;;;33.20;48.40;33.10;101054;;;;608536;234;23027;-78
2022/09/21 09:14:53;;;;;;;1.60;0.50;;;33.90;47.30;33.80;101050;;;;602987;234;24066;-77
2022/09/21 09:17:39;;;;;;;5.22;0.93;;;34.60;46.40;33.10;101050;;;;604006;234;22997;-77
2022/09/21 09:20:21;;;;;;;1.42;0.70;;;34.50;45.80;30.90;101070;;;;588355;238;34928;-79
2022/09/21 09:22:46;;;;;;;1.87;0.43;;;33.00;47.10;28.10;101056;;;;602844;234;24034;-78
2022/09/21 09:25:16;;;;;;;0.98;0.60;;;30.70;49.70;26.40;101051;;;;603214;234;23098;-77
2022/09/21 09:27:44;;;;;;;3.20;0.68;;;28.50;53.20;24.80;101047;;;;603273;234;23063;-77
2022/09/21 09:30:18;;;;;;;0.50;0.50;;;26.60;56.30;23.30;101055;;;;608536;234;23089;-78
2022/09/21 09:33:11;;;;;;;0.53;0.50;;;25.00;59.20;22.20;101053;;;;580335;243;23047;-78
2022/09/21 09:35:47;;;;;;;0.40;0.37;;;23.50;63.70;21.50;101054;;;;609391;234;24010;-78
2022/09/21 09:38:36;;;;;;;1.40;0.50;;;22.50;66.60;21.50;101050;;;;604225;234;24006;-78
2022/09/21 09:41:25;;;;;;;0.50;0.50;;;22.00;69.10;22.80;101042;;;;604327;234;24121;-77
2022/09/21 09:44:08;;;;;;;1.80;0.63;;;23.00;67.50;23.70;101040;;;;604036;234;24016;-78
2022/09/21 09:47:10;;;;;;;1.07;0.57;;;24.00;66.40;24.70;101039;;;;604373;234;23991;-78
2022/09/21 09:49:46;;;;;;;0.57;0.53;;;25.00;65.50;25.10;101046;;;;604202;234;24026;-77
2022/09/21 09:52:15;;;;;;;0.73;0.50;;;25.60;62.20;24.60;101050;;;;600251;237;24106;-77
2022/09/21 09:54:46;;;;;;;1.40;0.70;;;25.70;62.80;25.20;101050;;;;603705;234;23012;-77
2022/09/21 09:57:15;;;;;;;1.63;0.80;;;25.90;60.50;25.00;101042;;;;590630;239;24089;-77
2022/09/21 09:59:42;;;;;;;0.33;0.33;;;25.80;60.40;24.40;101043;;;;603805;234;23009;-78
2022/09/21 10:02:22;;;;;;;1.57;0.60;;;25.40;61.20;23.10;101054;;;;603233;234;23021;-77
2022/09/21 10:05:05;;;;;;;0.40;0.40;;;24.40;61.40;21.80;101062;;;;603432;234;23008;-76
2022/09/21 10:07:38;;;;;;;0.87;0.60;;;23.20;63.60;20.50;101056;;;;608938;234;24044;-76
2022/09/21 10:10:03;;;;;;;2.67;0.30;;;21.90;67.40;19.60;101059;;;;603602;234;23993;-77
2022/09/21 10:12:31;;;;;;;1.23;0.40;;;20.80;70.60;19.00;101061;;;;611877;234;24011;-76
2022/09/21 10:15:00;;;;;;;1.53;0.60;;;20.00;73.00;18.50;101061;;;;599850;239;24139;-80
2022/09/21 10:17:31;;;;;;;0.43;0.43;;;19.30;76.20;18.00;101066;;;;603525;234;24026;-78
2022/09/21 10:20:04;;;;;;;1.30;0.50;;;18.80;79.30;17.60;101068;;;;600716;234;24063;-77
2022/09/21 10:22:35;;;;;;;2.78;0.60;;;18.00;83.70;17.30;101072;;;;594100;234;34713;-77
2022/09/21 10:25:04;;;;;;;2.57;0.77;;;17.70;85.90;17.20;101072;;;;599690;239;24031;-78
2022/09/21 10:27:29;;;;;;;3.23;0.50;;;17.70;85.20;17.10;101065;;;;613363;233;24023;-77
2022/09/21 10:29:57;;;;;;;1.73;0.83;;;17.60;86.10;17.00;101069;;;;608731;234;24026;-76
2022/09/21 10:32:25;;;;;;;0.70;0.60;;;17.50;87.40;17.00;101073;;;;599302;232;23984;-76
2022/09/21 10:35:15;;;;;;;1.03;0.40;;;17.50;89.10;16.90;101066;;;;603788;234;24003;-77
2022/09/21 10:37:42;;;;;;;0.67;0.67;;;17.40;89.20;16.80;101061;;;;611225;234;24073;-77
2022/09/21 10:40:19;;;;;;;1.10;0.67;;;17.30;90.30;16.70;101055;;;;603741;234;23999;-75
2022/09/21 10:42:52;;;;;;;2.53;0.60;;;17.30;91.10;16.70;101059;;;;604030;234;23995;-75
2022/09/21 10:45:20;;;;;;;0.50;0.40;;;17.20;91.60;16.60;101062;;;;604466;234;24012;-76
2022/09/21 10:48:09;;;;;;;0.90;0.60;;;17.10;91.80;16.70;101057;;;;605138;234;24003;-77
2022/09/21 10:50:40;;;;;;;1.03;0.60;;;17.10;92.60;16.90;101062;;;;604390;234;24000;-80
2022/09/21 10:53:29;;;;;;;1.23;0.60;;;17.30;93.10;17.10;101055;;;;604539;234;24007;-80
2022/09/21 10:56:05;;;;;;;0.93;0.80;;;17.40;93.20;17.20;101052;;;;603899;234;24060;-79
2022/09/21 10:58:33;;;;;;;3.33;0.67;;;17.60;93.50;17.50;101050;;;;604147;234;24019;-80
2022/09/21 11:01:10;;;;;;;0.87;0.60;;;17.90;92.90;17.70;101049;;;;604707;234;24064;-79
2022/09/21 11:04:00;;;;;;;1.97;0.57;;;18.00;93.00;17.60;101050;;;;602962;234;25092;-77
2022/09/21 11:06:27;;;;;;;0.70;0.60;;;18.00;92.90;17.40;101058;;;;603780;234;24000;-75
2022/09/21 11:09:08;;;;;;;4.33;0.60;;;17.70;93.70;17.10;101061;;;;608884;234;24074;-75
2022/09/21 11:11:58;;;;;;;1.97;0.77;;;17.60;93.70;16.70;101053;;;;603637;234;23994;-76
2022/09/21 11:14:50;;;;;;;0.50;0.50;;;17.30;93.60;16.40;101050;;;;614031;234;23992;-78
2022/09/21 11:17:33;;;;;;;1.93;0.63;;;17.00;93.70;16.40;101060;;;;603925;234;24014;-77
2022/09/21 11:20:12;;;;;;;0.47;0.47;;;16.90;94.70;16.40;101054;;;;603727;234;23998;-76
2022/09/21 11:22:43;;;;;;;2.20;0.50;;;16.90;94.60;16.40;101055;;;;603826;234;23996;-77
2022/09/21 11:25:31;;;;;;;0.80;0.60;;;16.80;95.10;16.40;101057;;;;603302;234;24012;-77
2022/09/21 11:28:09;;;;;;;0.90;0.57;;;16.80;95.60;16.30;101058;;;;590508;240;24032;-76
2022/09/21 11:30:49;;;;;;;0.70;0.60;;;16.80;96.50;16.30;101058;;;;603079;234;24010;-76
2022/09/21 11:33:34;;;;;;;2.17;0.70;;;16.80;97.70;16.30;101058;;;;602799;234;24081;-77
2022/09/21 11:36:08;;;;;;;1.33;0.87;;;16.80;99.80;16.30;101057;;;;603374;234;24019;-77
2022/09/21 11:38:48;;;;;;;1.33;0.40;;;16.70;99.90;16.20;101058;;;;598646;234;23999;-77
2022/09/21 11:41:45;;;;;;;2.77;0.60;;;16.60;99.90;16.10;101060;;;;589462;240;24044;-77